Time;durP1;ratioP1;P1;durP2;ratioP2;P2;SDS_P1;SDS_P2;PMS_P1;PMS_P2;Temp;Humidity;BMP_temperature;BMP_pressure;BME280_temperature;BME280_humidity;BME280_pressure;Samples;Min_cycle;Max_cycle;Signal;HPM_P1;HPM_P2
2022/05/07 00:00:01;;;;;;;20.57;8.88;;;;;;;10.49;57.77;150289.70;1742474;82;21036;-58
2022/05/07 00:02:31;;;;;;;13.20;8.03;;;;;;;10.50;59.21;150293.61;1740843;80;21049;-59
2022/05/07 00:04:58;;;;;;;16.80;8.40;;;;;;;10.46;59.39;150283.19;1742638;82;21044;-58
2022/05/07 00:07:26;;;;;;;16.95;8.40;;;;;;;10.48;62.12;150287.11;1742651;82;22082;-58
2022/05/07 00:09:53;;;;;;;18.17;8.08;;;;;;;10.51;64.26;150296.20;1742374;82;20984;-59
2022/05/07 00:12:21;;;;;;;18.32;8.28;;;;;;;10.58;65.44;150314.36;1742869;82;21060;-59
2022/05/07 00:14:49;;;;;;;15.93;8.65;;;;;;;10.63;65.71;150324.73;1742470;82;21091;-59
2022/05/07 00:20:03;;;;;;;19.05;7.90;;;;;;;10.64;65.13;150327.33;1742723;82;21851;-59
2022/05/07 00:22:30;;;;;;;17.32;7.72;;;;;;;10.63;64.14;150324.73;1740437;81;20982;-59
2022/05/07 00:24:58;;;;;;;18.23;7.47;;;;;;;10.60;63.02;150319.55;1742242;82;21394;-59
2022/05/07 00:27:25;;;;;;;19.20;8.60;;;;;;;10.53;61.91;150300.08;1743018;82;20984;-60
2022/05/07 00:29:52;;;;;;;18.70;8.05;;;;;;;10.41;61.90;150271.55;1742176;82;21076;-59
2022/05/07 00:32:19;;;;;;;15.10;8.48;;;;;;;10.37;62.28;150259.81;1742841;82;21122;-59
2022/05/07 00:34:46;;;;;;;18.40;8.20;;;;;;;10.32;62.22;150248.13;1742096;82;21573;-59
2022/05/07 00:37:14;;;;;;;16.17;7.72;;;;;;;10.25;62.76;150231.25;1742892;82;21044;-59
2022/05/07 00:39:42;;;;;;;16.23;8.13;;;;;;;10.20;63.03;150218.28;1742334;82;21108;-60
2022/05/07 00:42:10;;;;;;;14.47;7.12;;;;;;;10.16;63.18;150207.91;1743141;82;21084;-60
2022/05/07 00:44:37;;;;;;;19.98;7.50;;;;;;;10.15;63.30;150205.31;1743680;82;21272;-60
2022/05/07 00:47:24;;;;;;;15.95;7.33;;;;;;;10.12;63.20;150197.55;1743174;81;21337;-60
2022/05/07 00:51:33;;;;;;;15.45;7.53;;;;;;;10.03;62.95;150176.75;1743507;82;21084;-60
2022/05/07 00:52:28;;;;;;;17.07;7.40;;;;;;;9.97;63.14;150159.94;1717796;82;21020;-60
2022/05/07 00:54:56;;;;;;;15.45;7.50;;;;;;;9.93;62.59;150150.84;1737525;82;21268;-60
2022/05/07 00:57:23;;;;;;;15.00;6.92;;;;;;;9.87;62.08;150136.56;1707156;81;21329;-60
2022/05/07 00:59:51;;;;;;;14.93;7.25;;;;;;;9.81;61.80;150119.69;1737821;82;21108;-60
2022/05/07 01:02:18;;;;;;;18.77;7.67;;;;;;;9.75;61.54;150106.73;1738041;82;21028;-60
2022/05/07 01:04:46;;;;;;;19.07;8.28;;;;;;;9.68;61.26;150088.59;1737819;82;20973;-60
2022/05/07 01:07:13;;;;;;;19.50;7.62;;;;;;;9.60;61.38;150067.81;1737907;82;20990;-60
2022/05/07 01:09:41;;;;;;;15.55;7.40;;;;;;;9.56;62.03;150057.45;1737731;82;21923;-59
2022/05/07 01:12:09;;;;;;;14.80;6.67;;;;;;;9.54;62.76;150052.27;1737793;82;21072;-60
2022/05/07 01:14:36;;;;;;;13.68;6.70;;;;;;;9.55;63.08;150054.86;1737786;82;21403;-61
2022/05/07 01:17:08;;;;;;;15.13;6.87;;;;;;;9.54;63.62;150052.27;1737662;82;20961;-60
2022/05/07 01:19:36;;;;;;;17.77;7.10;;;;;;;9.53;64.02;150049.67;1738372;82;20942;-60
2022/05/07 01:22:03;;;;;;;12.58;6.67;;;;;;;9.52;65.43;150047.09;1738178;82;21929;-60
2022/05/07 01:24:31;;;;;;;13.08;6.42;;;;;;;9.54;66.72;150052.27;1737743;82;21006;-59
2022/05/07 01:26:58;;;;;;;14.78;6.65;;;;;;;9.64;67.92;150078.22;1736920;82;21069;-59
2022/05/07 01:29:26;;;;;;;13.22;6.50;;;;;;;9.74;68.16;150104.14;1737238;82;21069;-60
2022/05/07 01:31:53;;;;;;;13.00;6.67;;;;;;;9.81;68.59;150121.00;1736950;82;21064;-60
2022/05/07 01:34:20;;;;;;;13.53;6.80;;;;;;;9.88;68.81;150137.88;1737908;82;21812;-60
2022/05/07 01:36:49;;;;;;;14.28;6.70;;;;;;;9.92;69.39;150146.92;1747944;80;21561;-60
2022/05/07 01:39:17;;;;;;;12.23;6.40;;;;;;;9.99;70.35;150166.39;1748930;80;21032;-60
2022/05/07 01:41:44;;;;;;;13.08;5.83;;;;;;;10.06;71.28;150181.94;1737661;82;21092;-60
2022/05/07 01:44:11;;;;;;;14.28;5.87;;;;;;;10.14;71.63;150202.73;1738134;82;21040;-60
2022/05/07 01:49:27;;;;;;;9.10;5.65;;;;;;;10.25;72.19;150231.25;1748461;80;21033;-60
2022/05/07 01:51:54;;;;;;;10.70;5.53;;;;;;;10.32;72.47;150249.44;1748551;82;20984;-59
2022/05/07 01:54:21;;;;;;;14.50;6.47;;;;;;;10.37;73.25;150261.08;1754475;81;21435;-60
2022/05/07 01:56:49;;;;;;;12.98;5.80;;;;;;;10.44;73.70;150279.33;1753930;80;21123;-60
2022/05/07 01:59:17;;;;;;;14.43;6.05;;;;;;;10.53;74.65;150301.39;1754409;81;21080;-60
2022/05/07 02:01:44;;;;;;;12.33;6.42;;;;;;;10.57;75.32;150311.77;1753869;81;21091;-60
2022/05/07 02:04:11;;;;;;;9.73;5.70;;;;;;;10.63;75.75;150326.05;1754312;81;21061;-60
2022/05/07 02:06:39;;;;;;;12.70;6.25;;;;;;;10.68;76.15;150337.70;1754349;81;20973;-59
2022/05/07 02:09:08;;;;;;;12.47;5.78;;;;;;;10.72;76.20;150348.06;1754362;80;21123;-60
2022/05/07 02:11:35;;;;;;;11.08;5.90;;;;;;;10.73;76.37;150351.98;1754208;81;21292;-60
2022/05/07 02:14:04;;;;;;;13.72;6.08;;;;;;;10.76;76.40;150358.50;1754288;81;21058;-60
2022/05/07 02:16:31;;;;;;;13.40;5.58;;;;;;;10.77;76.60;150361.09;1754266;81;21061;-60
2022/05/07 02:18:59;;;;;;;11.20;5.58;;;;;;;10.79;76.83;150366.28;1753582;81;22243;-60
2022/05/07 02:21:26;;;;;;;10.23;4.92;;;;;;;10.81;76.56;150371.47;1754183;81;21348;-60
2022/05/07 02:23:54;;;;;;;10.98;4.83;;;;;;;10.84;76.36;150377.97;1753723;81;21541;-60
2022/05/07 02:26:21;;;;;;;8.83;4.70;;;;;;;10.89;75.84;150390.94;1754303;80;20989;-59
2022/05/07 02:28:49;;;;;;;7.50;4.30;;;;;;;10.96;75.54;150407.81;1753911;81;21522;-59
2022/05/07 02:31:17;;;;;;;13.30;5.22;;;;;;;11.02;74.78;150423.37;1754266;81;21061;-59
2022/05/07 02:33:45;;;;;;;8.65;3.92;;;;;;;11.08;73.75;150437.67;1754106;80;21045;-59
2022/05/07 02:36:15;;;;;;;8.73;3.85;;;;;;;11.11;72.96;150446.73;1754063;81;21560;-60
2022/05/07 02:38:42;;;;;;;8.48;3.75;;;;;;;11.15;72.33;150457.11;1753233;81;20988;-60
2022/05/07 02:43:46;;;;;;;;;;;;;;;11.26;71.75;150484.37;1692793;83;21119;-59
2022/05/07 02:46:15;;;;;;;6.78;3.72;;;;;;;11.34;71.83;150502.58;1724566;82;20108;-60
2022/05/07 02:48:44;;;;;;;7.03;3.27;;;;;;;11.37;71.84;150510.36;1723900;83;21293;-60
2022/05/07 02:51:13;;;;;;;9.30;3.02;;;;;;;11.43;71.37;150527.25;1737443;81;21096;-59
2022/05/07 02:53:40;;;;;;;6.40;3.02;;;;;;;11.46;70.50;150535.03;1732366;82;21011;-60
2022/05/07 02:56:07;;;;;;;6.58;2.90;;;;;;;11.54;69.68;150553.20;1737236;82;21029;-60
2022/05/07 02:58:35;;;;;;;6.12;3.27;;;;;;;11.62;69.56;150574.02;1732411;82;21098;-61
2022/05/07 03:01:02;;;;;;;5.80;3.02;;;;;;;11.70;69.15;150593.45;1732202;82;21711;-60
2022/05/07 03:03:31;;;;;;;5.03;2.70;;;;;;;11.81;68.62;150620.72;1701527;82;21058;-59
2022/05/07 03:06:00;;;;;;;5.45;2.65;;;;;;;11.89;68.23;150641.53;1731724;82;20964;-60
2022/05/07 03:08:27;;;;;;;6.30;3.15;;;;;;;12.01;67.23;150672.73;1732207;82;21005;-59
2022/05/07 03:10:55;;;;;;;7.58;2.80;;;;;;;12.11;67.25;150697.42;1732145;82;21615;-58
2022/05/07 03:13:22;;;;;;;6.97;2.92;;;;;;;12.22;67.24;150724.70;1738051;81;21238;-59
2022/05/07 03:15:49;;;;;;;5.97;2.87;;;;;;;12.33;67.25;150751.98;1732212;82;21070;-59
2022/05/07 03:18:17;;;;;;;6.60;2.62;;;;;;;12.43;66.95;150776.67;1701709;82;21063;-59
2022/05/07 03:20:44;;;;;;;5.67;2.45;;;;;;;12.51;66.57;150796.17;1737663;81;21076;-59
2022/05/07 03:23:13;;;;;;;3.22;2.45;;;;;;;12.61;66.46;150823.47;1732221;82;21529;-59
2022/05/07 03:25:40;;;;;;;7.10;3.22;;;;;;;12.73;66.59;150852.08;1737769;82;21470;-59
2022/05/07 03:28:07;;;;;;;5.50;3.00;;;;;;;12.84;66.96;150880.66;1737798;82;21565;-58
2022/05/07 03:30:35;;;;;;;6.20;3.00;;;;;;;12.96;67.01;150909.27;1732556;82;21017;-58
2022/05/07 03:33:05;;;;;;;5.85;2.98;;;;;;;13.07;67.13;150937.84;1732447;82;21055;-60
2022/05/07 03:35:32;;;;;;;6.65;2.45;;;;;;;13.21;66.98;150971.66;1737736;81;20925;-60
2022/05/07 03:38:00;;;;;;;5.10;2.75;;;;;;;13.31;66.65;150998.97;1732368;82;20991;-60
2022/05/07 03:40:29;;;;;;;5.35;2.60;;;;;;;13.42;66.50;151024.95;1732410;82;21007;-60
2022/05/07 03:42:57;;;;;;;8.38;3.00;;;;;;;13.53;66.05;151052.31;1727512;80;21060;-60
2022/05/07 03:45:27;;;;;;;5.78;2.55;;;;;;;13.65;65.59;151082.22;1711490;83;21407;-60
2022/05/07 03:47:55;;;;;;;5.92;2.45;;;;;;;13.75;65.16;151109.53;1711510;83;21418;-60
2022/05/07 03:50:22;;;;;;;6.50;2.30;;;;;;;13.87;64.96;151138.17;1711806;83;21193;-58
2022/05/07 03:55:41;;;;;;;;;;;;;;;14.08;64.41;151191.48;1713899;83;21455;-59
2022/05/07 03:58:03;;;;;;;5.35;1.75;;;;;;;14.21;63.76;151224.00;1710353;83;20169;-60
2022/05/07 04:00:32;;;;;;;4.45;1.80;;;;;;;14.31;62.25;151248.72;1721790;83;21445;-59
2022/05/07 04:03:01;;;;;;;7.05;2.17;;;;;;;14.43;61.64;151278.66;1711161;83;21051;-60
2022/05/07 04:05:30;;;;;;;5.60;1.70;;;;;;;14.53;60.57;151304.70;1709896;83;21419;-59
2022/05/07 04:08:00;;;;;;;2.40;1.60;;;;;;;14.63;59.61;151329.44;1721588;83;22137;-60
2022/05/07 04:10:28;;;;;;;5.87;1.75;;;;;;;14.74;59.02;151356.81;1722135;83;21337;-60
2022/05/07 04:12:56;;;;;;;8.98;2.05;;;;;;;14.83;58.83;151378.94;1717076;83;21111;-60
2022/05/07 04:15:25;;;;;;;3.72;1.60;;;;;;;14.93;58.55;151403.67;1700887;84;20979;-60
2022/05/07 04:17:54;;;;;;;5.25;1.80;;;;;;;15.00;58.22;151421.88;1720944;83;21468;-59
2022/05/07 04:20:21;;;;;;;5.47;1.80;;;;;;;15.10;58.33;151447.91;1721562;83;21015;-60
2022/05/07 04:22:51;;;;;;;5.85;1.80;;;;;;;15.17;57.70;151466.16;1710049;83;21028;-60
2022/05/07 04:25:18;;;;;;;3.92;2.10;;;;;;;15.28;57.66;151492.17;1711375;83;22229;-60
2022/05/07 04:27:46;;;;;;;4.50;2.22;;;;;;;15.37;57.42;151515.64;1711329;83;21009;-59
2022/05/07 04:30:14;;;;;;;8.13;2.22;;;;;;;15.46;56.77;151539.06;1711339;83;21075;-60
2022/05/07 04:32:42;;;;;;;6.37;2.00;;;;;;;15.56;57.12;151563.80;1710894;83;21087;-59
2022/05/07 04:35:10;;;;;;;4.12;1.95;;;;;;;15.69;56.78;151595.03;1711656;83;20989;-60
2022/05/07 04:37:37;;;;;;;6.62;2.12;;;;;;;15.81;56.44;151625.03;1711459;83;21487;-59
2022/05/07 04:40:09;;;;;;;7.05;1.95;;;;;;;15.91;56.16;151651.11;1711230;83;21152;-59
2022/05/07 04:42:37;;;;;;;4.35;1.82;;;;;;;15.99;55.37;151671.92;1712092;83;21471;-61
2022/05/07 04:45:07;;;;;;;4.00;1.85;;;;;;;16.07;54.65;151691.47;1714361;83;21052;-59
2022/05/07 04:47:43;;;;;;;3.77;1.75;;;;;;;16.14;54.53;151708.42;1714429;83;21080;-59
2022/05/07 04:50:13;;;;;;;5.50;1.60;;;;;;;16.20;54.73;151722.77;1713478;83;21490;-59
2022/05/07 04:52:41;;;;;;;3.22;1.60;;;;;;;16.28;55.51;151744.91;1713424;83;22172;-61
2022/05/07 04:55:09;;;;;;;5.72;1.42;;;;;;;16.37;55.39;151767.08;1713930;83;21096;-60
2022/05/07 04:57:36;;;;;;;3.72;1.40;;;;;;;16.41;55.22;151777.48;1742507;80;21399;-60
2022/05/07 05:00:07;;;;;;;8.25;1.57;;;;;;;16.42;55.35;151778.77;1740027;82;21486;-60
2022/05/07 05:02:48;;;;;;;3.85;1.32;;;;;;;16.47;56.01;151791.83;1742101;82;21044;-60
2022/05/07 05:05:16;;;;;;;4.90;1.37;;;;;;;16.52;56.08;151804.84;1740090;82;21157;-60
2022/05/07 05:07:46;;;;;;;3.55;1.40;;;;;;;16.51;56.75;151802.25;1742559;82;21043;-60
2022/05/07 05:10:14;;;;;;;4.28;1.37;;;;;;;16.52;56.53;151803.53;1740061;82;21628;-60
2022/05/07 05:12:43;;;;;;;1.45;1.25;;;;;;;16.51;56.62;151802.25;1742736;82;20992;-60
2022/05/07 05:15:11;;;;;;;5.35;1.35;;;;;;;16.47;56.99;151793.11;1740350;82;21055;-60
2022/05/07 05:17:43;;;;;;;1.92;1.30;;;;;;;16.50;57.61;151799.64;1721975;82;21146;-60
2022/05/07 05:20:11;;;;;;;4.62;1.62;;;;;;;16.55;58.32;151812.66;1740078;82;21104;-60
2022/05/07 05:22:47;;;;;;;5.50;1.50;;;;;;;16.60;58.51;151825.69;1742833;81;20974;-61
2022/05/07 05:25:16;;;;;;;2.75;1.52;;;;;;;16.66;58.44;151838.70;1740283;82;21069;-59
2022/05/07 05:27:44;;;;;;;4.60;1.40;;;;;;;16.71;58.27;151851.77;1740402;82;21740;-59
2022/05/07 05:30:13;;;;;;;3.40;1.37;;;;;;;16.74;58.46;151859.58;1739944;82;21215;-58
2022/05/07 05:32:40;;;;;;;5.30;1.42;;;;;;;16.73;58.67;151856.98;1739824;82;21016;-59
2022/05/07 05:35:09;;;;;;;4.55;1.57;;;;;;;16.70;59.02;151850.44;1739728;82;21451;-59
2022/05/07 05:37:38;;;;;;;5.87;1.70;;;;;;;16.65;59.19;151837.42;1743148;81;21013;-59
2022/05/07 05:40:08;;;;;;;3.22;1.80;;;;;;;16.66;59.92;151838.70;1743058;80;21080;-60
2022/05/07 05:42:37;;;;;;;6.28;1.70;;;;;;;16.66;60.01;151838.70;1741167;82;21961;-61
2022/05/07 05:45:08;;;;;;;10.65;3.05;;;;;;;16.73;60.54;151856.98;1743332;82;21123;-59
2022/05/07 05:47:35;;;;;;;4.08;1.67;;;;;;;16.83;60.08;151883.03;1743545;82;20898;-59
2022/05/07 05:50:04;;;;;;;6.42;2.00;;;;;;;16.83;57.22;151883.03;1743132;82;21060;-59
2022/05/07 05:52:33;;;;;;;5.42;1.70;;;;;;;16.76;56.04;151864.78;1748397;80;20958;-60
2022/05/07 05:55:00;;;;;;;5.30;1.92;;;;;;;16.66;55.76;151838.70;1737741;82;21741;-59
2022/05/07 05:57:27;;;;;;;3.72;1.77;;;;;;;16.59;55.67;151823.08;1738143;81;20990;-61
2022/05/07 05:59:55;;;;;;;6.37;1.75;;;;;;;16.56;55.92;151815.27;1737415;82;21041;-60
2022/05/07 06:02:23;;;;;;;5.72;1.67;;;;;;;16.57;56.12;151816.55;1738123;82;21037;-59
2022/05/07 06:04:55;;;;;;;5.08;1.70;;;;;;;16.58;56.17;151820.47;1736308;82;22209;-59
2022/05/07 06:07:26;;;;;;;4.20;1.60;;;;;;;16.55;56.19;151812.66;1737670;82;20918;-60
2022/05/07 06:09:55;;;;;;;3.02;1.60;;;;;;;16.57;56.55;151817.88;1747445;80;21100;-61
2022/05/07 06:12:24;;;;;;;8.78;1.85;;;;;;;16.57;56.35;151817.88;1738303;82;21013;-59
2022/05/07 06:14:55;;;;;;;6.25;1.60;;;;;;;16.53;56.98;151807.45;1737446;82;21529;-59
2022/05/07 06:17:23;;;;;;;6.10;1.92;;;;;;;16.55;55.76;151812.66;1738038;82;21107;-60
2022/05/07 06:19:53;;;;;;;4.85;1.70;;;;;;;16.60;54.85;151825.69;1738197;82;21226;-59
2022/05/07 06:22:20;;;;;;;5.33;2.00;;;;;;;16.60;54.68;151824.41;1737741;81;21001;-61
2022/05/07 06:27:36;;;;;;;6.70;2.10;;;;;;;16.47;56.11;151791.83;1715131;83;21020;-58
2022/05/07 06:30:09;;;;;;;5.87;2.02;;;;;;;16.39;56.87;151770.95;1752693;81;21088;-59
2022/05/07 06:32:41;;;;;;;6.45;2.02;;;;;;;16.39;57.51;151770.95;1747187;81;21204;-59
2022/05/07 06:35:09;;;;;;;6.10;2.02;;;;;;;16.44;57.23;151783.97;1754083;81;21044;-59
2022/05/07 06:37:39;;;;;;;5.20;2.27;;;;;;;16.47;56.13;151791.83;1747291;80;20874;-58
2022/05/07 06:40:08;;;;;;;4.75;1.70;;;;;;;16.47;55.41;151791.83;1737883;82;20973;-58
2022/05/07 06:42:39;;;;;;;5.00;2.33;;;;;;;16.40;55.47;151774.88;1747165;82;21399;-58
2022/05/07 06:45:10;;;;;;;6.50;2.00;;;;;;;16.43;54.35;151781.38;1710939;83;21272;-59
2022/05/07 06:47:38;;;;;;;7.28;1.90;;;;;;;16.47;53.82;151793.11;1711372;83;20957;-59
2022/05/07 06:50:07;;;;;;;6.37;1.77;;;;;;;16.60;52.94;151825.69;1711179;83;21040;-59
2022/05/07 06:52:44;;;;;;;1.80;1.50;;;;;;;16.66;52.79;151838.70;1711667;83;21021;-58
2022/05/07 06:55:16;;;;;;;7.28;1.70;;;;;;;16.71;52.54;151851.77;1711558;83;22178;-59
2022/05/07 06:57:45;;;;;;;8.95;1.60;;;;;;;16.70;52.19;151849.17;1711781;83;22029;-59
2022/05/07 07:00:14;;;;;;;7.42;1.80;;;;;;;16.73;52.31;151856.98;1711511;83;21143;-59
2022/05/07 07:02:42;;;;;;;7.53;2.20;;;;;;;16.83;52.26;151883.03;1711173;83;21052;-58
2022/05/07 07:05:10;;;;;;;3.87;1.70;;;;;;;16.94;51.58;151909.13;1710740;83;21053;-58
2022/05/07 07:07:37;;;;;;;5.97;2.20;;;;;;;16.93;51.61;151906.52;1710928;83;21387;-58
2022/05/07 07:10:06;;;;;;;9.40;2.47;;;;;;;16.87;52.04;151893.44;1710379;83;21880;-59
2022/05/07 07:12:40;;;;;;;6.75;2.75;;;;;;;16.86;51.66;151890.84;1721377;82;21329;-60
2022/05/07 07:15:09;;;;;;;11.25;3.33;;;;;;;16.83;51.66;151883.03;1710597;83;21486;-58
2022/05/07 07:17:41;;;;;;;9.28;2.67;;;;;;;16.83;51.69;151883.03;1710860;83;21842;-60
2022/05/07 07:20:10;;;;;;;8.25;2.75;;;;;;;16.83;51.35;151883.03;1711042;83;20996;-59
2022/05/07 07:22:39;;;;;;;8.58;2.62;;;;;;;16.76;51.61;151864.78;1711176;83;21173;-60
2022/05/07 07:25:07;;;;;;;8.63;2.72;;;;;;;16.79;51.78;151871.28;1711042;83;21033;-59
2022/05/07 07:27:35;;;;;;;10.03;2.98;;;;;;;16.85;52.52;151888.23;1711475;83;20966;-59
2022/05/07 07:30:03;;;;;;;8.88;2.92;;;;;;;16.85;53.95;151886.95;1711204;83;21068;-58
2022/05/07 07:32:31;;;;;;;7.40;2.98;;;;;;;16.78;54.56;151870.00;1711886;83;21005;-59
2022/05/07 07:34:58;;;;;;;9.95;2.70;;;;;;;16.73;54.94;151856.98;1711183;83;21115;-58
2022/05/07 07:37:27;;;;;;;4.92;2.90;;;;;;;16.76;55.57;151864.78;1711736;83;21006;-59
2022/05/07 07:39:55;;;;;;;7.35;2.65;;;;;;;16.79;55.51;151871.28;1711554;83;20933;-59
2022/05/07 07:42:23;;;;;;;8.60;2.98;;;;;;;16.70;55.68;151849.17;1711515;83;21474;-59
2022/05/07 07:47:56;;;;;;;6.95;2.35;;;;;;;16.70;55.61;151849.17;1714177;82;21032;-58
2022/05/07 07:48:20;;;;;;;9.95;2.83;;;;;;;16.73;55.28;151856.98;1739843;80;21104;-58
2022/05/07 07:49:57;;;;;;;6.75;2.65;;;;;;;16.70;54.65;151849.17;1711819;82;21045;-59
2022/05/07 07:52:24;;;;;;;6.30;2.58;;;;;;;16.66;54.41;151840.03;1741104;82;20969;-58
2022/05/07 07:54:51;;;;;;;7.10;2.47;;;;;;;16.65;54.50;151837.42;1740576;82;21076;-60
2022/05/07 07:57:21;;;;;;;7.45;2.30;;;;;;;16.65;53.59;151837.42;1743255;80;21118;-60
2022/05/07 07:59:48;;;;;;;8.85;2.20;;;;;;;16.61;52.97;151827.00;1740146;82;21219;-61
2022/05/07 08:02:15;;;;;;;5.80;2.40;;;;;;;16.66;53.10;151838.70;1740503;82;21378;-59
2022/05/07 08:04:43;;;;;;;9.95;2.55;;;;;;;16.75;52.91;151862.19;1740695;82;20933;-59
2022/05/07 08:12:41;;;;;;;5.95;2.30;;;;;;;16.69;52.25;151846.52;1740668;82;21291;-60
2022/05/07 08:15:09;;;;;;;10.00;2.60;;;;;;;16.71;51.39;151851.77;1740279;82;21044;-60
2022/05/07 08:17:38;;;;;;;12.15;2.08;;;;;;;16.76;51.74;151866.06;1740530;82;32533;-63
2022/05/07 08:20:09;;;;;;;9.03;2.35;;;;;;;16.75;51.36;151862.19;1740209;82;20988;-60
2022/05/07 08:22:37;;;;;;;6.70;2.40;;;;;;;16.63;50.65;151830.89;1740531;82;20874;-60
2022/05/07 08:25:06;;;;;;;7.72;2.40;;;;;;;16.56;51.26;151815.27;1740134;82;21203;-61
2022/05/07 08:27:34;;;;;;;6.53;2.25;;;;;;;16.61;51.49;151828.28;1720489;81;21347;-60
2022/05/07 08:30:01;;;;;;;8.25;2.12;;;;;;;16.64;51.53;151833.50;1740321;82;21393;-63
2022/05/07 08:32:28;;;;;;;4.42;2.12;;;;;;;16.68;51.97;151843.91;1740725;82;21066;-60
2022/05/07 08:34:56;;;;;;;7.40;2.50;;;;;;;16.70;52.09;151849.17;1740088;82;21096;-60
2022/05/07 08:37:23;;;;;;;8.03;2.70;;;;;;;16.67;51.73;151841.31;1740845;82;21195;-60
2022/05/07 08:39:50;;;;;;;5.10;2.02;;;;;;;16.65;51.87;151837.42;1739906;82;21056;-60
2022/05/07 08:42:18;;;;;;;5.87;2.30;;;;;;;16.64;51.75;151834.81;1740363;82;21576;-60
2022/05/07 08:44:45;;;;;;;4.25;2.15;;;;;;;16.66;51.87;151838.70;1740576;82;20989;-59
2022/05/07 08:47:13;;;;;;;12.20;2.30;;;;;;;16.74;51.71;151860.86;1741659;82;21772;-60
2022/05/07 08:49:41;;;;;;;6.53;2.40;;;;;;;16.82;50.93;151880.42;1741791;82;21170;-60
2022/05/07 08:52:10;;;;;;;4.75;2.20;;;;;;;16.84;51.24;151885.62;1741276;82;21434;-61
2022/05/07 08:54:38;;;;;;;5.22;2.17;;;;;;;16.82;51.34;151880.42;1741755;82;21001;-60
2022/05/07 08:57:06;;;;;;;4.28;2.17;;;;;;;16.82;50.59;151879.14;1710267;82;21337;-59
2022/05/07 08:59:33;;;;;;;4.83;2.12;;;;;;;16.72;49.79;151854.37;1740138;80;20977;-61
2022/05/07 09:02:00;;;;;;;4.33;2.45;;;;;;;16.61;50.58;151828.28;1739649;80;22027;-61
2022/05/07 09:04:28;;;;;;;7.55;2.40;;;;;;;16.55;50.94;151812.66;1741982;82;21015;-59
2022/05/07 09:06:57;;;;;;;4.25;2.10;;;;;;;16.49;51.02;151797.03;1741664;82;21177;-59
2022/05/07 09:09:24;;;;;;;6.62;2.25;;;;;;;16.51;51.33;151802.25;1741992;82;21049;-60
2022/05/07 09:11:51;;;;;;;9.80;2.33;;;;;;;16.59;51.49;151823.08;1741887;82;21111;-60
2022/05/07 09:14:19;;;;;;;9.30;2.65;;;;;;;16.69;50.96;151846.52;1741932;82;21041;-60
2022/05/07 09:16:48;;;;;;;5.08;1.90;;;;;;;16.73;50.72;151856.98;1742405;82;21040;-59
2022/05/07 09:19:26;;;;;;;8.25;2.52;;;;;;;16.73;50.94;151856.98;1742159;82;21339;-59
2022/05/07 09:22:09;;;;;;;10.05;2.58;;;;;;;16.80;50.78;151875.22;1742209;81;21047;-62
2022/05/07 09:24:38;;;;;;;6.60;2.37;;;;;;;16.79;50.83;151872.59;1742196;82;21367;-59
2022/05/07 09:27:06;;;;;;;7.42;2.60;;;;;;;16.76;50.35;151864.78;1741962;82;21893;-59
2022/05/07 09:29:35;;;;;;;4.92;2.42;;;;;;;16.66;50.51;151838.70;1740887;81;20993;-61
2022/05/07 09:32:13;;;;;;;6.33;2.37;;;;;;;16.58;50.43;151820.47;1741430;82;21115;-61
2022/05/07 09:37:38;;;;;;;4.92;2.60;;;;;;;16.48;50.51;151794.44;1742058;82;20993;-59
2022/05/07 09:40:09;;;;;;;7.35;2.42;;;;;;;16.51;50.06;151802.25;1741475;82;21545;-59
2022/05/07 09:42:36;;;;;;;5.12;2.47;;;;;;;16.55;49.67;151811.33;1742320;82;20989;-60
2022/05/07 09:45:05;;;;;;;6.20;2.40;;;;;;;16.52;48.87;151804.84;1714753;82;21056;-60
2022/05/07 09:47:40;;;;;;;3.60;2.08;;;;;;;16.55;48.52;151811.33;1740282;82;21111;-60
2022/05/07 09:50:20;;;;;;;5.03;2.10;;;;;;;16.53;48.18;151806.13;1739938;82;21053;-61
2022/05/07 09:58:21;;;;;;;10.18;2.62;;;;;;;16.48;47.09;151794.44;1740460;82;21112;-60
2022/05/07 10:01:22;;;;;;;8.55;2.50;;;;;;;16.46;47.58;151790.50;1740250;82;21047;-61
2022/05/07 10:04:29;;;;;;;5.22;2.27;;;;;;;16.51;46.72;151802.25;1740818;82;21497;-60
2022/05/07 10:07:38;;;;;;;5.03;2.37;;;;;;;16.44;46.82;151785.30;1740388;82;21091;-60
2022/05/07 10:10:25;;;;;;;6.22;2.77;;;;;;;16.36;46.24;151764.47;1740119;82;21076;-60
2022/05/07 10:12:55;;;;;;;6.42;2.60;;;;;;;16.27;46.78;151742.31;1740842;82;21028;-59
2022/05/07 10:15:23;;;;;;;5.85;2.70;;;;;;;16.23;46.07;151731.84;1740911;82;21454;-61
2022/05/07 10:18:06;;;;;;;6.37;2.62;;;;;;;16.17;47.54;151716.22;1740739;82;21090;-61
2022/05/07 10:20:39;;;;;;;7.08;3.12;;;;;;;16.16;47.84;151713.62;1740738;82;21160;-60
2022/05/07 10:23:08;;;;;;;9.45;2.90;;;;;;;16.18;47.22;151720.16;1720373;82;21088;-60
2022/05/07 10:25:38;;;;;;;10.40;3.42;;;;;;;16.20;47.03;151724.03;1741091;82;21453;-59
2022/05/07 10:28:10;;;;;;;7.78;3.50;;;;;;;16.23;46.93;151731.84;1740306;82;21005;-61
2022/05/07 10:30:46;;;;;;;8.03;3.02;;;;;;;16.24;46.00;151733.17;1740594;82;21006;-59
2022/05/07 10:33:13;;;;;;;9.03;3.08;;;;;;;16.19;46.57;151721.44;1740810;82;21074;-60
2022/05/07 10:35:53;;;;;;;7.53;3.75;;;;;;;16.19;46.91;151721.44;1740924;82;20960;-60
2022/05/07 10:38:28;;;;;;;6.33;3.27;;;;;;;16.17;46.20;151716.22;1740203;82;21474;-60
2022/05/07 10:41:04;;;;;;;7.85;3.52;;;;;;;16.14;46.19;151709.75;1740182;82;21044;-59
2022/05/07 10:43:38;;;;;;;13.72;4.10;;;;;;;16.11;46.39;151700.61;1740230;82;21048;-60
2022/05/07 10:46:21;;;;;;;7.37;3.47;;;;;;;16.12;45.30;151703.22;1739223;82;21246;-60
2022/05/07 10:49:01;;;;;;;9.70;2.90;;;;;;;16.13;45.41;151707.09;1740557;82;21227;-60
2022/05/07 10:51:39;;;;;;;8.40;3.65;;;;;;;16.17;45.19;151716.22;1740437;82;21060;-60
2022/05/07 10:54:24;;;;;;;10.70;3.12;;;;;;;16.14;44.67;151708.42;1739029;82;21080;-60
2022/05/07 10:56:53;;;;;;;9.65;3.60;;;;;;;16.13;45.64;151705.81;1740789;82;21048;-60
2022/05/07 10:59:23;;;;;;;7.50;3.20;;;;;;;16.16;46.04;151714.95;1740860;82;21442;-60
2022/05/07 11:01:50;;;;;;;10.68;3.50;;;;;;;16.19;46.47;151721.44;1742718;80;21487;-60
2022/05/07 11:04:22;;;;;;;12.15;4.10;;;;;;;16.23;45.57;151731.84;1740389;82;21057;-59
2022/05/07 11:06:52;;;;;;;7.03;3.37;;;;;;;16.21;44.54;151726.64;1740014;82;22099;-60
2022/05/07 11:09:22;;;;;;;7.03;3.12;;;;;;;16.17;44.79;151716.22;1740409;82;21032;-60
2022/05/07 11:11:54;;;;;;;13.18;3.47;;;;;;;16.17;45.49;151716.22;1743051;82;21211;-59
2022/05/07 11:14:30;;;;;;;9.55;3.17;;;;;;;16.23;45.70;151731.84;1740402;82;21165;-59
2022/05/07 11:17:00;;;;;;;8.00;2.95;;;;;;;16.25;44.38;151737.11;1740188;82;21037;-59
2022/05/07 11:19:33;;;;;;;8.45;3.05;;;;;;;16.24;44.50;151734.45;1740387;82;21061;-60
2022/05/07 11:22:02;;;;;;;9.43;2.70;;;;;;;16.21;43.59;151725.37;1743072;82;21490;-61
2022/05/07 11:24:34;;;;;;;7.15;3.08;;;;;;;16.24;42.80;151734.45;1740444;82;21139;-60
2022/05/07 11:27:07;;;;;;;5.95;2.75;;;;;;;16.28;43.38;151744.91;1738867;82;21028;-59
2022/05/07 11:29:34;;;;;;;8.45;3.72;;;;;;;16.32;42.92;151755.33;1740237;82;20969;-60
2022/05/07 11:32:07;;;;;;;6.33;3.10;;;;;;;16.36;42.66;151763.14;1740106;82;20973;-60
2022/05/07 11:34:37;;;;;;;9.83;3.40;;;;;;;16.37;42.98;151765.75;1740382;82;20954;-60
2022/05/07 11:37:19;;;;;;;11.73;3.17;;;;;;;16.35;42.88;151761.81;1739666;82;21100;-61
2022/05/07 11:40:00;;;;;;;5.37;2.20;;;;;;;16.37;41.91;151765.75;1739917;82;21065;-61
2022/05/07 11:42:35;;;;;;;6.72;2.37;;;;;;;16.38;41.21;151768.34;1740440;82;21515;-60
2022/05/07 11:47:55;;;;;;;5.45;2.50;;;;;;;16.35;40.40;151760.53;1722064;82;20768;-60
2022/05/07 11:50:27;;;;;;;5.92;2.37;;;;;;;16.35;40.75;151760.53;1711947;83;20973;-60
2022/05/07 11:52:55;;;;;;;6.28;2.05;;;;;;;16.32;39.93;151755.33;1711953;83;21103;-61
2022/05/07 11:55:27;;;;;;;3.90;2.40;;;;;;;16.31;39.30;151751.41;1711966;83;20985;-61
2022/05/07 11:57:56;;;;;;;6.62;2.83;;;;;;;16.32;39.49;151754.00;1712008;83;21080;-60
2022/05/07 12:00:27;;;;;;;8.00;2.80;;;;;;;16.29;39.51;151747.52;1710978;83;21057;-60
2022/05/07 12:03:03;;;;;;;10.85;3.30;;;;;;;16.27;40.37;151740.98;1712092;83;21245;-59
2022/05/07 12:05:45;;;;;;;5.78;3.42;;;;;;;16.27;40.48;151742.31;1712084;83;21090;-60